Drummond Island, MI (49726)

7:57 PM EST on December 03, 2016 (GMT -0500)
Potagannissing Bay Front | | Change Station

Elev 587 ft 46.06 °N, 83.67 °W | Updated 5 seconds ago

Overcast
Overcast
34.9 °F
Feels Like 35 °F
N
1.0
Wind Variable Wind from NNW
Gusts 7.0 mph

Today
High -- | Low -- °F
--% Chance of Precip.
Yesterday
High -- | Low -- °F
Precip. -- in
Pressure 30.24 in
Visibility 10.0 miles
Clouds Scattered Clouds 1200 ft
Overcast 4800 ft
Windchill 35 °F
Dew Point 32 °F
Humidity 89%
Rainfall 0.00 in
Snow Depth Not available.
7:59 AM 4:50 PM
Waxing Crescent, 18% visible
METAR KDRM 040035Z AUTO 32003KT 10SM SCT012 OVC048 01/00 A3024 RMK AO2 T00101004
Pressure 30.24 in
Visibility 10.0 miles
Clouds Scattered Clouds 1200 ft
Overcast 4800 ft
Windchill 35 °F
Dew Point 32 °F
Humidity 89%
Rainfall 0.00 in
Snow Depth Not available.
7:59 AM 4:50 PM
Waxing Crescent, 18% visible
METAR KDRM 040035Z AUTO 32003KT 10SM SCT012 OVC048 01/00 A3024 RMK AO2 T00101004

10-Day Weather Forecast

Almanac

Astronomy

Dec. 03, 2016 Rise Set
Actual Time
Civil Twilight
Nautical Twilight
Astronomical Twilight
Moon
Length of Visible Light
Length of Day
Tomorrow will be .
, % of the Moon is Illuminated

Today's Extremes

State Highs State Lows

Community

WunderPhotos

Upload Photos

1,955,542 photos uploaded!

WunderBlog® & News

Nearby

Air Quality

  Air Quality AQ Index Pollutant
Not available.

Snow Depth

Station Depth Elevation

Earthquake Activity

City Distance Mag. Time & Date
Minimum magnitude displayed is 2.5.

Coastal Water Temperatures

Place Temperature

Stations

Nearby Weather Stations

Station Location Temp. Windchill Dew Point Humidity Wind Precip. Elev Updated Type
                   

Watches & Warnings

There are currently no watches in effect.